sensor_id;sensor_type;location;lat;lon;timestamp;P1;durP1;ratioP1;P2;durP2;ratioP2
50773;SDS011;36745;48.544;8.918;2023-05-07T00:02:16;5.05;;;3.90;;
50773;SDS011;36745;48.544;8.918;2023-05-07T00:05:36;5.72;;;4.50;;
50773;SDS011;36745;48.544;8.918;2023-05-07T00:08:57;8.30;;;4.18;;
50773;SDS011;36745;48.544;8.918;2023-05-07T00:12:17;8.65;;;4.22;;
50773;SDS011;36745;48.544;8.918;2023-05-07T00:15:37;7.18;;;4.57;;
50773;SDS011;36745;48.544;8.918;2023-05-07T00:18:56;4.72;;;4.05;;
50773;SDS011;36745;48.544;8.918;2023-05-07T00:22:16;7.97;;;4.65;;
50773;SDS011;36745;48.544;8.918;2023-05-07T00:25:36;6.03;;;4.50;;
50773;SDS011;36745;48.544;8.918;2023-05-07T00:28:56;5.72;;;4.60;;
50773;SDS011;36745;48.544;8.918;2023-05-07T00:32:16;5.40;;;4.07;;
50773;SDS011;36745;48.544;8.918;2023-05-07T00:35:35;5.95;;;4.07;;
50773;SDS011;36745;48.544;8.918;2023-05-07T00:38:56;6.72;;;4.45;;
50773;SDS011;36745;48.544;8.918;2023-05-07T00:42:18;5.20;;;3.90;;
50773;SDS011;36745;48.544;8.918;2023-05-07T00:45:37;6.38;;;4.00;;
50773;SDS011;36745;48.544;8.918;2023-05-07T00:48:58;10.50;;;4.50;;
50773;SDS011;36745;48.544;8.918;2023-05-07T00:52:18;4.82;;;4.15;;
50773;SDS011;36745;48.544;8.918;2023-05-07T00:55:41;4.60;;;4.03;;
50773;SDS011;36745;48.544;8.918;2023-05-07T00:59:01;12.68;;;4.30;;
50773;SDS011;36745;48.544;8.918;2023-05-07T01:02:22;6.72;;;4.85;;
50773;SDS011;36745;48.544;8.918;2023-05-07T01:05:42;14.57;;;5.25;;
50773;SDS011;36745;48.544;8.918;2023-05-07T01:09:05;4.10;;;3.08;;
50773;SDS011;36745;48.544;8.918;2023-05-07T01:12:25;6.68;;;4.10;;
50773;SDS011;36745;48.544;8.918;2023-05-07T01:15:45;8.13;;;4.10;;
50773;SDS011;36745;48.544;8.918;2023-05-07T01:19:05;6.57;;;4.35;;
50773;SDS011;36745;48.544;8.918;2023-05-07T01:22:35;5.78;;;4.20;;
50773;SDS011;36745;48.544;8.918;2023-05-07T01:25:55;5.95;;;4.55;;
50773;SDS011;36745;48.544;8.918;2023-05-07T01:29:15;6.63;;;4.40;;
50773;SDS011;36745;48.544;8.918;2023-05-07T01:32:48;5.75;;;4.70;;
50773;SDS011;36745;48.544;8.918;2023-05-07T01:36:10;5.82;;;4.60;;
50773;SDS011;36745;48.544;8.918;2023-05-07T01:39:31;6.00;;;4.50;;
50773;SDS011;36745;48.544;8.918;2023-05-07T01:42:51;4.80;;;4.30;;
50773;SDS011;36745;48.544;8.918;2023-05-07T01:46:12;8.80;;;4.47;;
50773;SDS011;36745;48.544;8.918;2023-05-07T01:49:32;7.80;;;3.92;;
50773;SDS011;36745;48.544;8.918;2023-05-07T01:52:52;9.82;;;4.13;;
50773;SDS011;36745;48.544;8.918;2023-05-07T01:56:12;6.28;;;4.20;;
50773;SDS011;36745;48.544;8.918;2023-05-07T01:59:31;5.35;;;4.03;;
50773;SDS011;36745;48.544;8.918;2023-05-07T02:02:51;5.75;;;4.80;;
50773;SDS011;36745;48.544;8.918;2023-05-07T02:06:12;6.22;;;4.78;;
50773;SDS011;36745;48.544;8.918;2023-05-07T02:09:31;7.75;;;5.03;;
50773;SDS011;36745;48.544;8.918;2023-05-07T02:12:51;5.53;;;4.13;;
50773;SDS011;36745;48.544;8.918;2023-05-07T02:16:11;5.68;;;4.53;;
50773;SDS011;36745;48.544;8.918;2023-05-07T02:19:33;7.22;;;5.07;;
50773;SDS011;36745;48.544;8.918;2023-05-07T02:22:52;5.63;;;4.60;;
50773;SDS011;36745;48.544;8.918;2023-05-07T02:26:12;4.88;;;4.32;;
50773;SDS011;36745;48.544;8.918;2023-05-07T02:29:32;9.70;;;4.97;;
50773;SDS011;36745;48.544;8.918;2023-05-07T02:32:52;6.00;;;4.53;;
50773;SDS011;36745;48.544;8.918;2023-05-07T02:36:12;5.25;;;4.28;;
50773;SDS011;36745;48.544;8.918;2023-05-07T02:39:31;5.35;;;4.55;;
50773;SDS011;36745;48.544;8.918;2023-05-07T02:42:51;6.55;;;4.32;;
50773;SDS011;36745;48.544;8.918;2023-05-07T02:46:11;5.93;;;4.78;;
50773;SDS011;36745;48.544;8.918;2023-05-07T02:49:31;12.32;;;4.63;;
50773;SDS011;36745;48.544;8.918;2023-05-07T02:52:51;7.53;;;4.80;;
50773;SDS011;36745;48.544;8.918;2023-05-07T02:56:13;6.05;;;4.40;;
50773;SDS011;36745;48.544;8.918;2023-05-07T02:59:33;6.03;;;4.45;;
50773;SDS011;36745;48.544;8.918;2023-05-07T03:02:53;6.95;;;4.55;;
50773;SDS011;36745;48.544;8.918;2023-05-07T03:06:12;4.55;;;4.15;;
50773;SDS011;36745;48.544;8.918;2023-05-07T03:09:32;8.23;;;5.05;;
50773;SDS011;36745;48.544;8.918;2023-05-07T03:12:52;8.20;;;5.18;;
50773;SDS011;36745;48.544;8.918;2023-05-07T03:16:12;11.20;;;4.90;;
50773;SDS011;36745;48.544;8.918;2023-05-07T03:19:32;9.55;;;4.60;;
50773;SDS011;36745;48.544;8.918;2023-05-07T03:22:51;7.55;;;4.75;;
50773;SDS011;36745;48.544;8.918;2023-05-07T03:26:11;8.55;;;4.78;;
50773;SDS011;36745;48.544;8.918;2023-05-07T03:29:31;8.70;;;4.82;;
50773;SDS011;36745;48.544;8.918;2023-05-07T03:32:51;5.90;;;4.78;;
50773;SDS011;36745;48.544;8.918;2023-05-07T03:36:11;7.43;;;4.82;;
50773;SDS011;36745;48.544;8.918;2023-05-07T03:39:30;6.63;;;5.28;;
50773;SDS011;36745;48.544;8.918;2023-05-07T03:42:51;5.28;;;4.78;;
50773;SDS011;36745;48.544;8.918;2023-05-07T03:46:11;5.00;;;4.50;;
50773;SDS011;36745;48.544;8.918;2023-05-07T03:49:30;5.72;;;4.70;;
50773;SDS011;36745;48.544;8.918;2023-05-07T03:52:50;8.82;;;5.13;;
50773;SDS011;36745;48.544;8.918;2023-05-07T03:56:10;6.00;;;5.20;;
50773;SDS011;36745;48.544;8.918;2023-05-07T03:59:30;6.13;;;5.13;;
50773;SDS011;36745;48.544;8.918;2023-05-07T04:02:50;7.95;;;4.90;;
50773;SDS011;36745;48.544;8.918;2023-05-07T04:06:09;8.43;;;5.20;;
50773;SDS011;36745;48.544;8.918;2023-05-07T04:09:29;6.07;;;4.88;;
50773;SDS011;36745;48.544;8.918;2023-05-07T04:12:49;7.45;;;5.40;;
50773;SDS011;36745;48.544;8.918;2023-05-07T04:16:09;5.30;;;4.80;;
50773;SDS011;36745;48.544;8.918;2023-05-07T04:19:29;5.97;;;5.38;;
50773;SDS011;36745;48.544;8.918;2023-05-07T04:22:48;9.27;;;5.18;;
50773;SDS011;36745;48.544;8.918;2023-05-07T04:26:08;7.75;;;5.40;;
50773;SDS011;36745;48.544;8.918;2023-05-07T04:29:28;10.82;;;4.95;;
50773;SDS011;36745;48.544;8.918;2023-05-07T04:32:48;5.45;;;4.60;;
50773;SDS011;36745;48.544;8.918;2023-05-07T04:36:08;6.85;;;4.72;;
50773;SDS011;36745;48.544;8.918;2023-05-07T04:39:28;8.70;;;4.90;;
50773;SDS011;36745;48.544;8.918;2023-05-07T04:42:47;6.55;;;5.00;;
50773;SDS011;36745;48.544;8.918;2023-05-07T04:46:07;6.80;;;5.00;;
50773;SDS011;36745;48.544;8.918;2023-05-07T04:49:27;7.63;;;5.18;;
50773;SDS011;36745;48.544;8.918;2023-05-07T04:52:47;5.45;;;4.85;;
50773;SDS011;36745;48.544;8.918;2023-05-07T04:56:06;7.35;;;4.43;;
50773;SDS011;36745;48.544;8.918;2023-05-07T04:59:26;3.88;;;3.47;;
50773;SDS011;36745;48.544;8.918;2023-05-07T05:02:46;4.53;;;3.80;;
50773;SDS011;36745;48.544;8.918;2023-05-07T05:06:06;6.40;;;3.70;;
50773;SDS011;36745;48.544;8.918;2023-05-07T05:09:25;6.47;;;3.70;;
50773;SDS011;36745;48.544;8.918;2023-05-07T05:12:45;6.10;;;3.40;;
50773;SDS011;36745;48.544;8.918;2023-05-07T05:16:05;5.18;;;3.40;;
50773;SDS011;36745;48.544;8.918;2023-05-07T05:19:25;8.73;;;6.10;;
50773;SDS011;36745;48.544;8.918;2023-05-07T05:22:44;7.72;;;4.18;;
50773;SDS011;36745;48.544;8.918;2023-05-07T05:26:04;6.40;;;3.90;;
50773;SDS011;36745;48.544;8.918;2023-05-07T05:29:24;7.72;;;3.83;;
50773;SDS011;36745;48.544;8.918;2023-05-07T05:32:44;6.65;;;4.35;;
50773;SDS011;36745;48.544;8.918;2023-05-07T05:36:04;4.22;;;3.83;;
50773;SDS011;36745;48.544;8.918;2023-05-07T05:39:24;7.40;;;5.18;;
50773;SDS011;36745;48.544;8.918;2023-05-07T05:42:44;5.15;;;3.92;;
50773;SDS011;36745;48.544;8.918;2023-05-07T05:46:04;7.63;;;4.55;;
50773;SDS011;36745;48.544;8.918;2023-05-07T05:49:24;6.45;;;3.90;;
50773;SDS011;36745;48.544;8.918;2023-05-07T05:52:43;6.53;;;4.18;;
50773;SDS011;36745;48.544;8.918;2023-05-07T05:56:03;7.10;;;4.22;;
50773;SDS011;36745;48.544;8.918;2023-05-07T05:59:23;7.90;;;4.68;;
50773;SDS011;36745;48.544;8.918;2023-05-07T06:02:43;5.32;;;4.50;;
50773;SDS011;36745;48.544;8.918;2023-05-07T06:06:03;5.22;;;4.72;;
50773;SDS011;36745;48.544;8.918;2023-05-07T06:09:23;6.05;;;4.70;;
50773;SDS011;36745;48.544;8.918;2023-05-07T06:12:42;4.90;;;4.32;;
50773;SDS011;36745;48.544;8.918;2023-05-07T06:16:02;6.72;;;4.93;;
50773;SDS011;36745;48.544;8.918;2023-05-07T06:19:22;5.45;;;4.70;;
50773;SDS011;36745;48.544;8.918;2023-05-07T06:22:43;4.60;;;4.20;;
50773;SDS011;36745;48.544;8.918;2023-05-07T06:26:03;5.22;;;4.72;;
50773;SDS011;36745;48.544;8.918;2023-05-07T06:29:22;6.70;;;4.22;;
50773;SDS011;36745;48.544;8.918;2023-05-07T06:32:42;7.43;;;5.05;;
50773;SDS011;36745;48.544;8.918;2023-05-07T06:36:02;10.23;;;4.80;;
50773;SDS011;36745;48.544;8.918;2023-05-07T06:39:22;4.63;;;4.22;;
50773;SDS011;36745;48.544;8.918;2023-05-07T06:42:42;5.40;;;4.60;;
50773;SDS011;36745;48.544;8.918;2023-05-07T06:46:02;6.03;;;4.35;;
50773;SDS011;36745;48.544;8.918;2023-05-07T06:49:21;5.55;;;4.53;;
50773;SDS011;36745;48.544;8.918;2023-05-07T06:52:41;4.70;;;4.10;;
50773;SDS011;36745;48.544;8.918;2023-05-07T06:56:01;6.10;;;3.88;;
50773;SDS011;36745;48.544;8.918;2023-05-07T06:59:21;4.82;;;4.10;;
50773;SDS011;36745;48.544;8.918;2023-05-07T07:02:41;4.55;;;4.15;;
50773;SDS011;36745;48.544;8.918;2023-05-07T07:06:01;7.88;;;4.03;;
50773;SDS011;36745;48.544;8.918;2023-05-07T07:09:21;4.20;;;3.80;;
50773;SDS011;36745;48.544;8.918;2023-05-07T07:12:41;5.20;;;4.43;;
50773;SDS011;36745;48.544;8.918;2023-05-07T07:16:01;5.72;;;3.90;;
50773;SDS011;36745;48.544;8.918;2023-05-07T07:19:21;4.72;;;4.25;;
50773;SDS011;36745;48.544;8.918;2023-05-07T07:22:41;4.75;;;4.25;;
50773;SDS011;36745;48.544;8.918;2023-05-07T07:26:00;5.85;;;3.90;;
50773;SDS011;36745;48.544;8.918;2023-05-07T07:29:20;4.53;;;4.13;;
50773;SDS011;36745;48.544;8.918;2023-05-07T07:32:40;6.72;;;4.30;;
50773;SDS011;36745;48.544;8.918;2023-05-07T07:36:00;6.20;;;4.65;;
50773;SDS011;36745;48.544;8.918;2023-05-07T07:39:19;6.05;;;3.85;;
50773;SDS011;36745;48.544;8.918;2023-05-07T07:42:39;6.40;;;4.15;;
50773;SDS011;36745;48.544;8.918;2023-05-07T07:45:59;6.28;;;4.93;;
50773;SDS011;36745;48.544;8.918;2023-05-07T07:49:19;5.30;;;4.80;;
50773;SDS011;36745;48.544;8.918;2023-05-07T07:52:39;8.07;;;4.70;;
50773;SDS011;36745;48.544;8.918;2023-05-07T07:55:58;6.97;;;4.50;;
50773;SDS011;36745;48.544;8.918;2023-05-07T07:59:18;5.05;;;4.50;;
50773;SDS011;36745;48.544;8.918;2023-05-07T08:02:39;7.13;;;4.70;;
50773;SDS011;36745;48.544;8.918;2023-05-07T08:05:59;5.45;;;4.63;;
50773;SDS011;36745;48.544;8.918;2023-05-07T08:09:19;6.03;;;4.88;;
50773;SDS011;36745;48.544;8.918;2023-05-07T08:12:39;6.43;;;4.70;;
50773;SDS011;36745;48.544;8.918;2023-05-07T08:15:59;4.95;;;4.45;;
50773;SDS011;36745;48.544;8.918;2023-05-07T08:19:19;5.40;;;4.88;;
50773;SDS011;36745;48.544;8.918;2023-05-07T08:22:39;8.13;;;4.68;;
50773;SDS011;36745;48.544;8.918;2023-05-07T08:25:59;7.15;;;4.30;;
50773;SDS011;36745;48.544;8.918;2023-05-07T08:29:19;6.82;;;4.38;;
50773;SDS011;36745;48.544;8.918;2023-05-07T08:32:39;5.47;;;3.90;;
50773;SDS011;36745;48.544;8.918;2023-05-07T08:35:59;4.82;;;4.03;;
50773;SDS011;36745;48.544;8.918;2023-05-07T08:39:18;5.43;;;4.35;;
50773;SDS011;36745;48.544;8.918;2023-05-07T08:42:38;9.32;;;4.72;;
50773;SDS011;36745;48.544;8.918;2023-05-07T08:46:00;4.25;;;3.85;;
50773;SDS011;36745;48.544;8.918;2023-05-07T08:49:21;7.20;;;3.67;;
50773;SDS011;36745;48.544;8.918;2023-05-07T08:52:41;4.25;;;3.30;;
50773;SDS011;36745;48.544;8.918;2023-05-07T08:56:01;3.55;;;3.17;;
50773;SDS011;36745;48.544;8.918;2023-05-07T08:59:21;5.00;;;3.67;;
50773;SDS011;36745;48.544;8.918;2023-05-07T09:02:41;6.10;;;3.65;;
50773;SDS011;36745;48.544;8.918;2023-05-07T09:06:01;8.77;;;3.50;;
50773;SDS011;36745;48.544;8.918;2023-05-07T09:09:21;6.75;;;3.58;;
50773;SDS011;36745;48.544;8.918;2023-05-07T09:12:41;4.70;;;3.28;;
50773;SDS011;36745;48.544;8.918;2023-05-07T09:16:13;3.38;;;3.08;;
50773;SDS011;36745;48.544;8.918;2023-05-07T09:19:33;5.10;;;3.40;;
50773;SDS011;36745;48.544;8.918;2023-05-07T09:22:55;3.50;;;3.20;;
50773;SDS011;36745;48.544;8.918;2023-05-07T09:26:15;3.42;;;3.13;;
50773;SDS011;36745;48.544;8.918;2023-05-07T09:29:35;5.00;;;3.55;;
50773;SDS011;36745;48.544;8.918;2023-05-07T09:32:54;4.13;;;3.40;;
50773;SDS011;36745;48.544;8.918;2023-05-07T09:36:14;13.65;;;3.10;;
50773;SDS011;36745;48.544;8.918;2023-05-07T09:39:48;4.13;;;2.97;;
50773;SDS011;36745;48.544;8.918;2023-05-07T09:43:09;2.72;;;2.53;;
50773;SDS011;36745;48.544;8.918;2023-05-07T09:46:30;3.53;;;2.78;;
50773;SDS011;36745;48.544;8.918;2023-05-07T09:49:56;5.50;;;3.40;;
50773;SDS011;36745;48.544;8.918;2023-05-07T09:53:18;5.43;;;2.90;;
50773;SDS011;36745;48.544;8.918;2023-05-07T09:56:38;4.05;;;3.30;;
50773;SDS011;36745;48.544;8.918;2023-05-07T10:00:01;5.28;;;3.03;;
50773;SDS011;36745;48.544;8.918;2023-05-07T10:03:23;3.83;;;3.30;;
50773;SDS011;36745;48.544;8.918;2023-05-07T10:06:46;4.25;;;3.13;;
50773;SDS011;36745;48.544;8.918;2023-05-07T10:10:06;4.07;;;2.90;;
50773;SDS011;36745;48.544;8.918;2023-05-07T10:13:27;3.95;;;3.20;;
50773;SDS011;36745;48.544;8.918;2023-05-07T10:16:47;3.13;;;2.85;;
50773;SDS011;36745;48.544;8.918;2023-05-07T10:20:07;6.18;;;3.40;;
50773;SDS011;36745;48.544;8.918;2023-05-07T10:23:27;4.65;;;2.80;;
50773;SDS011;36745;48.544;8.918;2023-05-07T10:26:50;5.30;;;2.72;;
50773;SDS011;36745;48.544;8.918;2023-05-07T10:33:31;3.10;;;2.35;;
50773;SDS011;36745;48.544;8.918;2023-05-07T10:36:52;5.75;;;3.90;;
50773;SDS011;36745;48.544;8.918;2023-05-07T10:40:15;3.10;;;2.42;;
50773;SDS011;36745;48.544;8.918;2023-05-07T10:43:43;4.47;;;2.78;;
50773;SDS011;36745;48.544;8.918;2023-05-07T10:50:28;4.55;;;2.15;;
50773;SDS011;36745;48.544;8.918;2023-05-07T10:53:48;3.03;;;2.22;;
50773;SDS011;36745;48.544;8.918;2023-05-07T11:00:59;3.05;;;2.50;;
50773;SDS011;36745;48.544;8.918;2023-05-07T11:04:20;4.45;;;2.72;;
50773;SDS011;36745;48.544;8.918;2023-05-07T11:07:53;5.13;;;2.50;;
50773;SDS011;36745;48.544;8.918;2023-05-07T11:11:20;3.08;;;2.08;;
50773;SDS011;36745;48.544;8.918;2023-05-07T11:15:07;3.97;;;2.10;;
50773;SDS011;36745;48.544;8.918;2023-05-07T11:18:50;6.82;;;2.30;;
50773;SDS011;36745;48.544;8.918;2023-05-07T11:25:50;4.88;;;2.35;;
50773;SDS011;36745;48.544;8.918;2023-05-07T11:29:10;2.95;;;2.17;;
50773;SDS011;36745;48.544;8.918;2023-05-07T11:32:34;3.35;;;1.83;;
50773;SDS011;36745;48.544;8.918;2023-05-07T11:35:54;4.32;;;2.78;;
50773;SDS011;36745;48.544;8.918;2023-05-07T11:39:23;4.85;;;2.00;;
50773;SDS011;36745;48.544;8.918;2023-05-07T11:42:52;5.30;;;2.30;;
50773;SDS011;36745;48.544;8.918;2023-05-07T11:46:12;3.35;;;2.10;;
50773;SDS011;36745;48.544;8.918;2023-05-07T11:49:33;5.53;;;2.30;;
50773;SDS011;36745;48.544;8.918;2023-05-07T11:52:53;5.05;;;2.40;;
50773;SDS011;36745;48.544;8.918;2023-05-07T11:56:14;5.00;;;2.22;;
50773;SDS011;36745;48.544;8.918;2023-05-07T11:59:39;3.33;;;2.17;;
50773;SDS011;36745;48.544;8.918;2023-05-07T12:03:06;4.43;;;3.28;;
50773;SDS011;36745;48.544;8.918;2023-05-07T12:06:26;8.25;;;3.35;;
50773;SDS011;36745;48.544;8.918;2023-05-07T12:09:47;6.03;;;2.70;;
50773;SDS011;36745;48.544;8.918;2023-05-07T12:13:28;4.95;;;3.40;;
50773;SDS011;36745;48.544;8.918;2023-05-07T12:16:47;4.50;;;1.92;;
50773;SDS011;36745;48.544;8.918;2023-05-07T12:20:06;3.30;;;1.88;;
50773;SDS011;36745;48.544;8.918;2023-05-07T12:23:27;8.23;;;2.05;;
50773;SDS011;36745;48.544;8.918;2023-05-07T12:26:48;4.55;;;2.30;;
50773;SDS011;36745;48.544;8.918;2023-05-07T12:30:09;3.25;;;2.30;;
50773;SDS011;36745;48.544;8.918;2023-05-07T12:33:30;2.63;;;2.38;;
50773;SDS011;36745;48.544;8.918;2023-05-07T12:36:50;6.93;;;3.10;;
50773;SDS011;36745;48.544;8.918;2023-05-07T12:40:10;4.57;;;2.28;;
50773;SDS011;36745;48.544;8.918;2023-05-07T12:43:30;4.13;;;2.47;;
50773;SDS011;36745;48.544;8.918;2023-05-07T12:46:51;3.53;;;2.67;;
50773;SDS011;36745;48.544;8.918;2023-05-07T12:50:11;5.65;;;2.78;;
50773;SDS011;36745;48.544;8.918;2023-05-07T12:53:33;3.75;;;3.13;;
50773;SDS011;36745;48.544;8.918;2023-05-07T12:57:11;4.13;;;2.97;;
50773;SDS011;36745;48.544;8.918;2023-05-07T13:00:35;3.42;;;2.55;;
50773;SDS011;36745;48.544;8.918;2023-05-07T13:03:55;6.50;;;3.03;;
50773;SDS011;36745;48.544;8.918;2023-05-07T13:07:19;4.75;;;3.17;;
50773;SDS011;36745;48.544;8.918;2023-05-07T13:10:44;5.38;;;3.17;;
50773;SDS011;36745;48.544;8.918;2023-05-07T13:14:03;11.13;;;4.10;;
50773;SDS011;36745;48.544;8.918;2023-05-07T13:17:23;7.43;;;4.03;;
50773;SDS011;36745;48.544;8.918;2023-05-07T13:20:43;6.82;;;3.97;;
50773;SDS011;36745;48.544;8.918;2023-05-07T13:24:03;9.63;;;4.18;;
50773;SDS011;36745;48.544;8.918;2023-05-07T13:27:23;8.95;;;4.30;;
50773;SDS011;36745;48.544;8.918;2023-05-07T13:30:42;11.07;;;4.53;;
50773;SDS011;36745;48.544;8.918;2023-05-07T13:34:02;10.75;;;4.78;;
50773;SDS011;36745;48.544;8.918;2023-05-07T13:37:22;8.25;;;4.40;;
50773;SDS011;36745;48.544;8.918;2023-05-07T13:40:42;7.63;;;3.85;;
50773;SDS011;36745;48.544;8.918;2023-05-07T13:44:02;9.40;;;4.40;;
50773;SDS011;36745;48.544;8.918;2023-05-07T13:47:21;7.10;;;4.28;;
50773;SDS011;36745;48.544;8.918;2023-05-07T13:50:41;5.88;;;4.35;;
50773;SDS011;36745;48.544;8.918;2023-05-07T13:54:01;6.68;;;4.00;;
50773;SDS011;36745;48.544;8.918;2023-05-07T13:57:21;6.65;;;4.43;;
50773;SDS011;36745;48.544;8.918;2023-05-07T14:00:41;11.68;;;4.13;;
50773;SDS011;36745;48.544;8.918;2023-05-07T14:04:00;7.13;;;4.95;;
50773;SDS011;36745;48.544;8.918;2023-05-07T14:07:20;12.82;;;7.72;;
50773;SDS011;36745;48.544;8.918;2023-05-07T14:10:40;12.45;;;5.93;;
50773;SDS011;36745;48.544;8.918;2023-05-07T14:13:59;9.55;;;5.47;;
50773;SDS011;36745;48.544;8.918;2023-05-07T14:17:19;16.63;;;5.53;;
50773;SDS011;36745;48.544;8.918;2023-05-07T14:20:39;9.25;;;5.20;;
50773;SDS011;36745;48.544;8.918;2023-05-07T14:23:59;10.15;;;4.75;;
50773;SDS011;36745;48.544;8.918;2023-05-07T14:27:19;9.93;;;6.93;;
50773;SDS011;36745;48.544;8.918;2023-05-07T14:30:39;8.82;;;4.70;;
50773;SDS011;36745;48.544;8.918;2023-05-07T14:33:58;8.63;;;5.43;;
50773;SDS011;36745;48.544;8.918;2023-05-07T14:37:18;7.43;;;4.50;;
50773;SDS011;36745;48.544;8.918;2023-05-07T14:40:39;7.40;;;3.35;;
50773;SDS011;36745;48.544;8.918;2023-05-07T14:43:59;6.88;;;3.50;;
50773;SDS011;36745;48.544;8.918;2023-05-07T14:47:18;4.75;;;3.72;;
50773;SDS011;36745;48.544;8.918;2023-05-07T14:50:38;5.45;;;3.40;;
50773;SDS011;36745;48.544;8.918;2023-05-07T14:53:58;5.25;;;3.40;;
50773;SDS011;36745;48.544;8.918;2023-05-07T14:57:17;3.97;;;3.17;;
50773;SDS011;36745;48.544;8.918;2023-05-07T15:00:38;5.45;;;2.90;;
50773;SDS011;36745;48.544;8.918;2023-05-07T15:03:58;5.18;;;3.58;;
50773;SDS011;36745;48.544;8.918;2023-05-07T15:07:19;7.82;;;3.85;;
50773;SDS011;36745;48.544;8.918;2023-05-07T15:10:38;5.05;;;3.45;;
50773;SDS011;36745;48.544;8.918;2023-05-07T15:14:01;8.77;;;3.72;;
50773;SDS011;36745;48.544;8.918;2023-05-07T15:17:20;5.43;;;3.80;;
50773;SDS011;36745;48.544;8.918;2023-05-07T15:20:40;7.07;;;3.60;;
50773;SDS011;36745;48.544;8.918;2023-05-07T15:24:01;7.13;;;3.50;;
50773;SDS011;36745;48.544;8.918;2023-05-07T15:27:22;7.05;;;4.13;;
50773;SDS011;36745;48.544;8.918;2023-05-07T15:30:41;6.10;;;3.90;;
50773;SDS011;36745;48.544;8.918;2023-05-07T15:34:01;5.57;;;4.00;;
50773;SDS011;36745;48.544;8.918;2023-05-07T15:37:21;4.60;;;3.65;;
50773;SDS011;36745;48.544;8.918;2023-05-07T15:40:41;8.20;;;5.53;;
50773;SDS011;36745;48.544;8.918;2023-05-07T15:44:00;11.07;;;4.72;;
50773;SDS011;36745;48.544;8.918;2023-05-07T15:47:20;6.65;;;4.20;;
50773;SDS011;36745;48.544;8.918;2023-05-07T15:50:40;5.88;;;3.90;;
50773;SDS011;36745;48.544;8.918;2023-05-07T15:54:00;5.57;;;3.35;;
50773;SDS011;36745;48.544;8.918;2023-05-07T15:57:23;6.55;;;4.05;;
50773;SDS011;36745;48.544;8.918;2023-05-07T16:00:43;6.80;;;3.08;;
50773;SDS011;36745;48.544;8.918;2023-05-07T16:04:03;10.93;;;6.03;;
50773;SDS011;36745;48.544;8.918;2023-05-07T16:07:23;4.65;;;3.38;;
50773;SDS011;36745;48.544;8.918;2023-05-07T16:10:42;3.78;;;3.38;;
50773;SDS011;36745;48.544;8.918;2023-05-07T16:14:02;7.30;;;4.90;;
50773;SDS011;36745;48.544;8.918;2023-05-07T16:17:22;4.60;;;2.90;;
50773;SDS011;36745;48.544;8.918;2023-05-07T16:20:42;5.55;;;3.70;;
50773;SDS011;36745;48.544;8.918;2023-05-07T16:24:02;3.97;;;3.58;;
50773;SDS011;36745;48.544;8.918;2023-05-07T16:27:22;12.95;;;9.73;;
50773;SDS011;36745;48.544;8.918;2023-05-07T16:30:42;4.15;;;3.03;;
50773;SDS011;36745;48.544;8.918;2023-05-07T16:34:01;8.48;;;6.03;;
50773;SDS011;36745;48.544;8.918;2023-05-07T16:37:21;6.70;;;5.82;;
50773;SDS011;36745;48.544;8.918;2023-05-07T16:40:41;12.55;;;9.02;;
50773;SDS011;36745;48.544;8.918;2023-05-07T16:44:01;9.13;;;3.50;;
50773;SDS011;36745;48.544;8.918;2023-05-07T16:47:22;10.15;;;7.28;;
50773;SDS011;36745;48.544;8.918;2023-05-07T16:50:42;6.00;;;4.53;;
50773;SDS011;36745;48.544;8.918;2023-05-07T16:54:02;8.60;;;4.40;;
50773;SDS011;36745;48.544;8.918;2023-05-07T16:57:23;9.35;;;5.10;;
50773;SDS011;36745;48.544;8.918;2023-05-07T17:00:43;6.13;;;4.60;;
50773;SDS011;36745;48.544;8.918;2023-05-07T17:04:03;6.03;;;4.50;;
50773;SDS011;36745;48.544;8.918;2023-05-07T17:07:24;6.20;;;4.70;;
50773;SDS011;36745;48.544;8.918;2023-05-07T17:10:45;4.90;;;4.10;;
50773;SDS011;36745;48.544;8.918;2023-05-07T17:14:05;5.88;;;5.18;;
50773;SDS011;36745;48.544;8.918;2023-05-07T17:17:25;5.75;;;4.22;;
50773;SDS011;36745;48.544;8.918;2023-05-07T17:20:45;10.75;;;6.15;;
50773;SDS011;36745;48.544;8.918;2023-05-07T17:24:05;9.35;;;6.88;;
50773;SDS011;36745;48.544;8.918;2023-05-07T17:27:25;6.07;;;4.63;;
50773;SDS011;36745;48.544;8.918;2023-05-07T17:30:44;5.18;;;4.68;;
50773;SDS011;36745;48.544;8.918;2023-05-07T17:34:05;7.45;;;5.28;;
50773;SDS011;36745;48.544;8.918;2023-05-07T17:37:25;5.50;;;4.47;;
50773;SDS011;36745;48.544;8.918;2023-05-07T17:40:45;9.52;;;4.85;;
50773;SDS011;36745;48.544;8.918;2023-05-07T17:44:05;9.23;;;5.50;;
50773;SDS011;36745;48.544;8.918;2023-05-07T17:47:24;8.48;;;5.15;;
50773;SDS011;36745;48.544;8.918;2023-05-07T17:50:44;10.63;;;5.75;;
50773;SDS011;36745;48.544;8.918;2023-05-07T17:54:04;8.25;;;5.55;;
50773;SDS011;36745;48.544;8.918;2023-05-07T17:57:24;6.78;;;5.20;;
50773;SDS011;36745;48.544;8.918;2023-05-07T18:00:45;6.43;;;5.10;;
50773;SDS011;36745;48.544;8.918;2023-05-07T18:04:04;7.20;;;5.25;;
50773;SDS011;36745;48.544;8.918;2023-05-07T18:07:24;6.88;;;5.00;;
50773;SDS011;36745;48.544;8.918;2023-05-07T18:10:44;5.82;;;5.15;;
50773;SDS011;36745;48.544;8.918;2023-05-07T18:14:04;14.27;;;5.22;;
50773;SDS011;36745;48.544;8.918;2023-05-07T18:17:24;9.38;;;5.57;;
50773;SDS011;36745;48.544;8.918;2023-05-07T18:20:48;7.85;;;5.32;;
50773;SDS011;36745;48.544;8.918;2023-05-07T18:24:08;6.88;;;5.78;;
50773;SDS011;36745;48.544;8.918;2023-05-07T18:27:29;7.45;;;5.57;;
50773;SDS011;36745;48.544;8.918;2023-05-07T18:30:49;8.63;;;5.75;;
50773;SDS011;36745;48.544;8.918;2023-05-07T18:34:09;8.05;;;5.28;;
50773;SDS011;36745;48.544;8.918;2023-05-07T18:37:28;11.00;;;5.30;;
50773;SDS011;36745;48.544;8.918;2023-05-07T18:40:48;7.85;;;5.78;;
50773;SDS011;36745;48.544;8.918;2023-05-07T18:44:08;9.60;;;6.05;;
50773;SDS011;36745;48.544;8.918;2023-05-07T18:47:28;10.98;;;6.60;;
50773;SDS011;36745;48.544;8.918;2023-05-07T18:50:48;7.25;;;6.13;;
50773;SDS011;36745;48.544;8.918;2023-05-07T18:54:08;7.43;;;6.25;;
50773;SDS011;36745;48.544;8.918;2023-05-07T18:57:28;6.63;;;6.00;;
50773;SDS011;36745;48.544;8.918;2023-05-07T19:00:48;8.48;;;7.00;;
50773;SDS011;36745;48.544;8.918;2023-05-07T19:04:08;11.20;;;8.57;;
50773;SDS011;36745;48.544;8.918;2023-05-07T19:07:28;8.70;;;6.47;;
50773;SDS011;36745;48.544;8.918;2023-05-07T19:10:49;8.90;;;5.93;;
50773;SDS011;36745;48.544;8.918;2023-05-07T19:14:08;7.00;;;5.88;;
50773;SDS011;36745;48.544;8.918;2023-05-07T19:17:29;8.65;;;6.57;;
50773;SDS011;36745;48.544;8.918;2023-05-07T19:20:49;9.32;;;6.50;;
50773;SDS011;36745;48.544;8.918;2023-05-07T19:24:10;10.27;;;6.20;;
50773;SDS011;36745;48.544;8.918;2023-05-07T19:27:29;10.48;;;6.60;;
50773;SDS011;36745;48.544;8.918;2023-05-07T19:30:49;8.75;;;7.03;;
50773;SDS011;36745;48.544;8.918;2023-05-07T19:34:10;7.00;;;6.30;;
50773;SDS011;36745;48.544;8.918;2023-05-07T19:37:32;7.90;;;6.90;;
50773;SDS011;36745;48.544;8.918;2023-05-07T19:40:55;9.02;;;6.75;;
50773;SDS011;36745;48.544;8.918;2023-05-07T19:47:35;12.02;;;6.65;;
50773;SDS011;36745;48.544;8.918;2023-05-07T19:50:55;9.45;;;6.95;;
50773;SDS011;36745;48.544;8.918;2023-05-07T19:54:15;7.82;;;6.95;;
50773;SDS011;36745;48.544;8.918;2023-05-07T19:57:35;8.82;;;6.90;;
50773;SDS011;36745;48.544;8.918;2023-05-07T20:00:54;9.45;;;6.97;;
50773;SDS011;36745;48.544;8.918;2023-05-07T20:04:14;9.02;;;7.97;;
50773;SDS011;36745;48.544;8.918;2023-05-07T20:07:34;12.70;;;8.07;;
50773;SDS011;36745;48.544;8.918;2023-05-07T20:10:56;11.02;;;7.30;;
50773;SDS011;36745;48.544;8.918;2023-05-07T20:14:17;7.88;;;7.13;;
50773;SDS011;36745;48.544;8.918;2023-05-07T20:17:37;7.97;;;6.80;;
50773;SDS011;36745;48.544;8.918;2023-05-07T20:20:57;12.15;;;9.02;;
50773;SDS011;36745;48.544;8.918;2023-05-07T20:24:17;8.80;;;7.40;;